Map

Track Data

SID SEASON NUMBER BASIN SUBBASIN NAME ISO_TIME NATURE LAT LON WMO_WIND WMO_PRES WMO_AGENCY TRACK_TYPE DIST2LAND LANDFALL IFLAG USA_AGENCY USA_ATCF_ID USA_LAT USA_LON USA_RECORD USA_STATUS USA_WIND USA_PRES USA_SSHS USA_R34_NE USA_R34_SE USA_R34_SW USA_R34_NW USA_R50_NE USA_R50_SE USA_R50_SW USA_R50_NW USA_R64_NE USA_R64_SE USA_R64_SW USA_R64_NW USA_POCI USA_ROCI USA_RMW USA_EYE TOKYO_LAT TOKYO_LON TOKYO_GRADE TOKYO_WIND TOKYO_PRES TOKYO_R50_DIR TOKYO_R50_LONG TOKYO_R50_SHORT TOKYO_R30_DIR TOKYO_R30_LONG TOKYO_R30_SHORT TOKYO_LAND CMA_LAT CMA_LON CMA_CAT CMA_WIND CMA_PRES HKO_LAT HKO_LON HKO_CAT HKO_WIND HKO_PRES NEWDELHI_LAT NEWDELHI_LON NEWDELHI_GRADE NEWDELHI_WIND NEWDELHI_PRES NEWDELHI_CI NEWDELHI_DP NEWDELHI_POCI REUNION_LAT REUNION_LON REUNION_TYPE REUNION_WIND REUNION_PRES REUNION_TNUM REUNION_CI REUNION_RMW REUNION_R34_NE REUNION_R34_SE REUNION_R34_SW REUNION_R34_NW REUNION_R50_NE REUNION_R50_SE REUNION_R50_SW REUNION_R50_NW REUNION_R64_NE REUNION_R64_SE REUNION_R64_SW REUNION_R64_NW BOM_LAT BOM_LON BOM_TYPE BOM_WIND BOM_PRES BOM_TNUM BOM_CI BOM_RMW BOM_R34_NE BOM_R34_SE BOM_R34_SW BOM_R34_NW BOM_R50_NE BOM_R50_SE BOM_R50_SW BOM_R50_NW BOM_R64_NE BOM_R64_SE BOM_R64_SW BOM_R64_NW BOM_ROCI BOM_POCI BOM_EYE BOM_POS_METHOD BOM_PRES_METHOD NADI_LAT NADI_LON NADI_CAT NADI_WIND NADI_PRES WELLINGTON_LAT WELLINGTON_LON WELLINGTON_WIND WELLINGTON_PRES DS824_LAT DS824_LON DS824_STAGE DS824_WIND DS824_PRES TD9636_LAT TD9636_LON TD9636_STAGE TD9636_WIND TD9636_PRES TD9635_LAT TD9635_LON TD9635_WIND TD9635_PRES TD9635_ROCI NEUMANN_LAT NEUMANN_LON NEUMANN_CLASS NEUMANN_WIND NEUMANN_PRES MLC_LAT MLC_LON MLC_CLASS MLC_WIND MLC_PRES USA_GUST BOM_GUST BOM_GUST_PER REUNION_GUST REUNION_GUST_PER USA_SEAHGT USA_SEARAD_NE USA_SEARAD_SE USA_SEARAD_SW USA_SEARAD_NW STORM_SPEED STORM_DIR
1911292N10150 1911 65 WP MM NOT_NAMED 1911-10-18 16:00:00 NR 10.3000 149.800 main 1414 1412 __________O___ -1 10.3000 149.800 7 26 303
1911292N10150 1911 65 WP MM NOT_NAMED 1911-10-18 18:00:00 NR 10.7696 149.070 main 1457 1454 __________P___ -1 10.7696 149.070 7 25 303
1911292N10150 1911 65 WP MM NOT_NAMED 1911-10-18 21:00:00 NR 11.4591 147.997 main 1525 1524 __________P___ -1 11.4591 147.997 7 25 303
1911292N10150 1911 65 WP MM NOT_NAMED 1911-10-19 00:00:00 NR 12.1134 146.984 main 1591 1591 __________P___ -1 12.1134 146.984 7 23 304
1911292N10150 1911 65 WP MM NOT_NAMED 1911-10-19 03:00:00 NR 12.7145 146.074 main 1659 1659 __________P___ -1 12.7145 146.074 7 21 304
1911292N10150 1911 65 WP MM NOT_NAMED 1911-10-19 04:00:00 NR 12.9000 145.800 main 1682 1682 __________O___ -1 12.9000 145.800 4 18 305
1911292N10150 1911 65 WP MM NOT_NAMED 1911-10-19 06:00:00 NR 13.2474 145.303 main 1720 1731 __________P___ -1 13.2474 145.303 4 17 307
1911292N10150 1911 65 WP MM NOT_NAMED 1911-10-19 09:00:00 NR 13.7254 144.672 main 1782 1794 __________P___ -1 13.7254 144.672 4 15 310
1911292N10150 1911 65 WP MM NOT_NAMED 1911-10-19 12:00:00 NR 14.1793 144.155 main 1845 1846 __________P___ -1 14.1793 144.155 4 13 315
1911292N10150 1911 65 WP MM NOT_NAMED 1911-10-19 15:00:00 NR 14.6398 143.727 main 1898 1909 __________P___ -1 14.6398 143.727 4 12 319
1911292N10150 1911 65 WP MM NOT_NAMED 1911-10-19 16:00:00 NR 14.8000 143.600 main 1921 1921 __________O___ -1 14.8000 143.600 4 13 322
1911292N10150 1911 65 WP MM NOT_NAMED 1911-10-19 18:00:00 NR 15.1413 143.324 main 1950 1927 __________P___ -1 15.1413 143.324 4 13 325
1911292N10150 1911 65 WP MM NOT_NAMED 1911-10-19 21:00:00 NR 15.6723 142.973 main 1928 1905 __________P___ -1 15.6723 142.973 4 13 331
1911292N10150 1911 65 WP MM NOT_NAMED 1911-10-20 00:00:00 NR 16.2262 142.690 main 1907 1895 __________P___ -1 16.2262 142.690 4 12 337
1911292N10150 1911 65 WP MM NOT_NAMED 1911-10-20 03:00:00 NR 16.8028 142.464 main 1901 1893 __________P___ -1 16.8028 142.464 4 12 340
1911292N10150 1911 65 WP MM NOT_NAMED 1911-10-20 04:00:00 NR 17.0000 142.400 main 1896 1891 __________O___ -1 17.0000 142.400 4 12 342
1911292N10150 1911 65 WP MM NOT_NAMED 1911-10-20 06:00:00 NR 17.3941 142.266 main 1897 1831 __________P___ -1 17.3941 142.266 4 13 345
1911292N10150 1911 65 WP MM NOT_NAMED 1911-10-20 09:00:00 NR 18.0043 142.109 main 1831 1764 __________P___ -1 18.0043 142.109 4 13 348
1911292N10150 1911 65 WP MM NOT_NAMED 1911-10-20 12:00:00 NR 18.6344 141.997 main 1764 1686 __________P___ -1 18.6344 141.997 4 13 352
1911292N10150 1911 65 WP MM NOT_NAMED 1911-10-20 15:00:00 NR 19.2812 141.920 main 1686 1665 __________P___ -1 19.2812 141.920 4 13 354
1911292N10150 1911 65 WP MM NOT_NAMED 1911-10-20 16:00:00 NR 19.5000 141.900 main 1665 1609 __________O___ -1 19.5000 141.900 4 14 354
1911292N10150 1911 65 WP MM NOT_NAMED 1911-10-20 18:00:00 NR 19.9516 141.847 main 1609 1547 __________P___ -1 19.9516 141.847 4 14 355
1911292N10150 1911 65 WP MM NOT_NAMED 1911-10-20 21:00:00 NR 20.6420 141.794 main 1547 1474 __________P___ -1 20.6420 141.794 4 14 357
1911292N10150 1911 65 WP MM NOT_NAMED 1911-10-21 00:00:00 NR 21.3285 141.772 main 1474 1402 __________P___ -1 21.3285 141.772 4 14 359
1911292N10150 1911 65 WP MM NOT_NAMED 1911-10-21 03:00:00 NR 21.9893 141.787 main 1402 1381 __________P___ -1 21.9893 141.787 4 13 0
1911292N10150 1911 65 WP MM NOT_NAMED 1911-10-21 04:00:00 NR 22.2000 141.800 main 1381 1340 __________O___ -1 22.2000 141.800 4 12 3
1911292N10150 1911 65 WP MM NOT_NAMED 1911-10-21 06:00:00 NR 22.5951 141.830 main 1340 1284 __________P___ -1 22.5951 141.830 4 12 6
1911292N10150 1911 65 WP MM NOT_NAMED 1911-10-21 09:00:00 NR 23.1564 141.907 main 1284 1239 __________P___ -1 23.1564 141.907 4 11 9
1911292N10150 1911 65 WP MM NOT_NAMED 1911-10-21 12:00:00 NR 23.6937 142.016 main 1239 1195 __________P___ -1 23.6937 142.016 4 11 12
1911292N10150 1911 65 WP MM NOT_NAMED 1911-10-21 15:00:00 NR 24.2228 142.151 main 1200 1181 __________P___ -1 24.2228 142.151 4 11 13
1911292N10150 1911 65 WP MM NOT_NAMED 1911-10-21 16:00:00 NR 24.4000 142.200 main 1181 1161 __________O___ -1 24.4000 142.200 4 8 4
1911292N10150 1911 65 WP MM NOT_NAMED 1911-10-21 18:00:00 NR 24.6290 142.203 main 1161 1120 __________P___ -1 24.6290 142.203 4 7 0
1911292N10150 1911 65 WP MM NOT_NAMED 1911-10-21 21:00:00 NR 24.9693 142.224 main 1120 1072 __________P___ -1 24.9693 142.224 4 8 9
1911292N10150 1911 65 WP MM NOT_NAMED 1911-10-22 00:00:00 NR 25.4516 142.358 main 1072 1006 __________P___ -1 25.4516 142.358 4 14 19
1911292N10150 1911 65 WP MM NOT_NAMED 1911-10-22 03:00:00 NR 26.2405 142.713 main 1006 977 __________P___ -1 26.2405 142.713 4 19 23
1911292N10150 1911 65 WP MM NOT_NAMED 1911-10-22 04:00:00 NR 26.6000 142.900 main 969 882 __________O___ -1 26.6000 142.900 4 30 28
1911292N10150 1911 65 WP MM NOT_NAMED 1911-10-22 06:00:00 NR 27.5617 143.489 main 882 764 __________P___ -1 27.5617 143.489 4 38 29
1911292N10150 1911 65 WP MM NOT_NAMED 1911-10-22 09:00:00 NR 29.3315 144.642 main 764 677 __________P___ -1 29.3315 144.642 4 44 30
1911292N10150 1911 65 WP MM NOT_NAMED 1911-10-22 12:00:00 NR 31.3227 145.971 main 677 638 __________P___ -1 31.3227 145.971 4 46 29
1911292N10150 1911 65 WP MM NOT_NAMED 1911-10-22 15:00:00 NR 33.3480 147.294 main 643 637 __________P___ -1 33.3480 147.294 4 46 28
1911292N10150 1911 65 WP MM NOT_NAMED 1911-10-22 16:00:00 NR 34.0000 147.700 main 647 647 __________O___ -1 34.0000 147.700 4 40 26
1911292N10150 1911 65 WP MM NOT_NAMED 1911-10-22 18:00:00 NR 35.1346 148.323 main 672 678 __________P___ -1 35.1346 148.323 4 37 23
1911292N10150 1911 65 WP MM NOT_NAMED 1911-10-22 21:00:00 NR 36.7967 149.144 main 680 644 __________P___ -1 36.7967 149.144 4 35 21
1911292N10150 1911 65 WP MM NOT_NAMED 1911-10-23 00:00:00 NR 38.4479 149.890 main 649 545 __________P___ -1 38.4479 149.890 4 35 19
1911292N10150 1911 65 WP MM NOT_NAMED 1911-10-23 03:00:00 NR 40.1274 150.637 main 545 529 __________P___ -1 40.1274 150.637 4 36 19
1911292N10150 1911 65 WP MM NOT_NAMED 1911-10-23 04:00:00 NR 40.7000 150.900 main 523 435 __________O___ -1 40.7000 150.900 7 37 20
1911292N10150 1911 65 WP MM NOT_NAMED 1911-10-23 06:00:00 NR 41.8694 151.464 main 435 299 __________P___ -1 41.8694 151.464 7 38 21
1911292N10150 1911 65 WP MM NOT_NAMED 1911-10-23 09:00:00 NR 43.6741 152.404 main 299 241 __________P___ -1 43.6741 152.404 7 39 21
1911292N10150 1911 65 WP MM NOT_NAMED 1911-10-23 12:00:00 NR 45.5194 153.451 main 248 245 __________P___ -1 45.5194 153.451 7 40 23
1911292N10150 1911 65 WP MM NOT_NAMED 1911-10-23 15:00:00 NR 47.3806 154.598 main 294 235 __________P___ -1 47.3806 154.598 7 40 23
1911292N10150 1911 65 WP MM NOT_NAMED 1911-10-23 16:00:00 NR 48.0000 155.000 main 223 __________O___ -1 48.0000 155.000 7 40 23

Digital Typhoon Data and Search

About IBTrACS Database

This database is a web-friendly format of International Best Track Archive for Climate Stewardship (IBTrACS), a global best track data archive curated by NOAA dating back to 1842.

Updated: 2021-12-03